sensor_id;sensor_type;location;lat;lon;timestamp;temperature;humidity
17565;DHT22;62994;52.126;5.596;2023-03-14T00:01:09;12.70;99.90
17565;DHT22;62994;52.126;5.596;2023-03-14T00:03:37;12.60;99.90
17565;DHT22;62994;52.126;5.596;2023-03-14T00:06:05;12.70;99.90
17565;DHT22;62994;52.126;5.596;2023-03-14T00:08:33;12.70;99.90
17565;DHT22;62994;52.126;5.596;2023-03-14T00:11:04;12.70;99.90
17565;DHT22;62994;52.126;5.596;2023-03-14T00:13:31;12.60;99.90
17565;DHT22;62994;52.126;5.596;2023-03-14T00:16:04;12.60;99.90
17565;DHT22;62994;52.126;5.596;2023-03-14T00:18:32;12.60;99.90
17565;DHT22;62994;52.126;5.596;2023-03-14T00:21:00;12.60;99.90
17565;DHT22;62994;52.126;5.596;2023-03-14T00:23:29;12.60;99.90
17565;DHT22;62994;52.126;5.596;2023-03-14T00:25:59;12.60;99.90
17565;DHT22;62994;52.126;5.596;2023-03-14T00:28:26;12.50;99.90
17565;DHT22;62994;52.126;5.596;2023-03-14T00:30:54;12.50;99.90
17565;DHT22;62994;52.126;5.596;2023-03-14T00:33:23;12.60;99.90
17565;DHT22;62994;52.126;5.596;2023-03-14T00:35:54;12.60;99.90
17565;DHT22;62994;52.126;5.596;2023-03-14T00:38:22;12.60;99.90
17565;DHT22;62994;52.126;5.596;2023-03-14T00:40:50;12.60;99.90
17565;DHT22;62994;52.126;5.596;2023-03-14T00:43:17;12.50;99.90
17565;DHT22;62994;52.126;5.596;2023-03-14T00:45:44;12.40;99.90
17565;DHT22;62994;52.126;5.596;2023-03-14T00:48:11;12.40;99.90
17565;DHT22;62994;52.126;5.596;2023-03-14T00:50:41;12.40;99.90
17565;DHT22;62994;52.126;5.596;2023-03-14T00:53:08;12.30;99.90
17565;DHT22;62994;52.126;5.596;2023-03-14T00:55:37;12.40;99.90
17565;DHT22;62994;52.126;5.596;2023-03-14T00:58:04;12.30;99.90
17565;DHT22;62994;52.126;5.596;2023-03-14T01:00:32;12.30;99.90
17565;DHT22;62994;52.126;5.596;2023-03-14T01:03:00;12.30;99.90
17565;DHT22;62994;52.126;5.596;2023-03-14T01:05:27;12.30;99.90
17565;DHT22;62994;52.126;5.596;2023-03-14T01:07:56;12.30;99.90
17565;DHT22;62994;52.126;5.596;2023-03-14T01:10:24;12.30;99.90
17565;DHT22;62994;52.126;5.596;2023-03-14T01:12:51;12.30;99.90
17565;DHT22;62994;52.126;5.596;2023-03-14T01:15:18;12.30;99.90
17565;DHT22;62994;52.126;5.596;2023-03-14T01:17:46;12.30;99.90
17565;DHT22;62994;52.126;5.596;2023-03-14T01:20:14;12.20;99.90
17565;DHT22;62994;52.126;5.596;2023-03-14T01:22:43;12.20;99.90
17565;DHT22;62994;52.126;5.596;2023-03-14T01:25:14;12.20;99.90
17565;DHT22;62994;52.126;5.596;2023-03-14T01:27:42;12.20;99.90
17565;DHT22;62994;52.126;5.596;2023-03-14T01:30:11;12.10;99.90
17565;DHT22;62994;52.126;5.596;2023-03-14T01:32:39;12.10;99.90
17565;DHT22;62994;52.126;5.596;2023-03-14T01:35:06;12.00;99.90
17565;DHT22;62994;52.126;5.596;2023-03-14T01:37:34;11.90;99.90
17565;DHT22;62994;52.126;5.596;2023-03-14T01:40:01;11.90;99.90
17565;DHT22;62994;52.126;5.596;2023-03-14T01:42:31;11.90;99.90
17565;DHT22;62994;52.126;5.596;2023-03-14T01:44:59;11.80;99.90
17565;DHT22;62994;52.126;5.596;2023-03-14T01:47:27;11.80;99.90
17565;DHT22;62994;52.126;5.596;2023-03-14T01:49:57;11.70;99.90
17565;DHT22;62994;52.126;5.596;2023-03-14T01:52:30;11.60;99.90
17565;DHT22;62994;52.126;5.596;2023-03-14T01:55:04;11.60;99.90
17565;DHT22;62994;52.126;5.596;2023-03-14T01:57:37;11.60;99.90
17565;DHT22;62994;52.126;5.596;2023-03-14T02:00:07;11.50;99.90
17565;DHT22;62994;52.126;5.596;2023-03-14T02:02:38;11.50;99.90
17565;DHT22;62994;52.126;5.596;2023-03-14T02:05:06;11.30;99.90
17565;DHT22;62994;52.126;5.596;2023-03-14T02:07:38;11.30;99.90
17565;DHT22;62994;52.126;5.596;2023-03-14T02:10:08;11.20;99.90
17565;DHT22;62994;52.126;5.596;2023-03-14T02:12:37;11.20;99.90
17565;DHT22;62994;52.126;5.596;2023-03-14T02:15:06;11.20;99.90
17565;DHT22;62994;52.126;5.596;2023-03-14T02:17:34;11.10;99.90
17565;DHT22;62994;52.126;5.596;2023-03-14T02:20:10;11.10;99.90
17565;DHT22;62994;52.126;5.596;2023-03-14T02:22:42;11.10;99.90
17565;DHT22;62994;52.126;5.596;2023-03-14T02:25:14;11.00;99.90
17565;DHT22;62994;52.126;5.596;2023-03-14T02:27:45;11.10;99.90
17565;DHT22;62994;52.126;5.596;2023-03-14T02:30:15;11.10;99.90
17565;DHT22;62994;52.126;5.596;2023-03-14T02:32:45;11.00;99.90
17565;DHT22;62994;52.126;5.596;2023-03-14T02:35:18;11.00;99.90
17565;DHT22;62994;52.126;5.596;2023-03-14T02:37:49;11.00;99.90
17565;DHT22;62994;52.126;5.596;2023-03-14T02:40:18;11.00;99.90
17565;DHT22;62994;52.126;5.596;2023-03-14T02:42:47;10.90;99.90
17565;DHT22;62994;52.126;5.596;2023-03-14T02:45:33;11.00;99.90
17565;DHT22;62994;52.126;5.596;2023-03-14T02:48:05;10.90;99.90
17565;DHT22;62994;52.126;5.596;2023-03-14T02:50:34;10.90;99.90
17565;DHT22;62994;52.126;5.596;2023-03-14T02:53:01;10.90;99.90
17565;DHT22;62994;52.126;5.596;2023-03-14T02:55:28;10.90;99.90
17565;DHT22;62994;52.126;5.596;2023-03-14T02:57:57;10.90;99.90
17565;DHT22;62994;52.126;5.596;2023-03-14T03:00:24;10.90;99.90
17565;DHT22;62994;52.126;5.596;2023-03-14T03:02:53;10.90;99.90
17565;DHT22;62994;52.126;5.596;2023-03-14T03:05:20;10.90;99.90
17565;DHT22;62994;52.126;5.596;2023-03-14T03:07:47;10.80;99.90
17565;DHT22;62994;52.126;5.596;2023-03-14T03:10:15;10.90;99.90
17565;DHT22;62994;52.126;5.596;2023-03-14T03:12:43;10.80;99.90
17565;DHT22;62994;52.126;5.596;2023-03-14T03:15:12;10.80;99.90
17565;DHT22;62994;52.126;5.596;2023-03-14T03:17:39;10.90;99.90
17565;DHT22;62994;52.126;5.596;2023-03-14T03:20:08;10.90;99.90
17565;DHT22;62994;52.126;5.596;2023-03-14T03:22:35;10.80;99.90
17565;DHT22;62994;52.126;5.596;2023-03-14T03:25:03;10.90;99.90
17565;DHT22;62994;52.126;5.596;2023-03-14T03:27:30;10.80;99.90
17565;DHT22;62994;52.126;5.596;2023-03-14T03:29:58;10.90;99.90
17565;DHT22;62994;52.126;5.596;2023-03-14T03:32:27;10.80;99.90
17565;DHT22;62994;52.126;5.596;2023-03-14T03:34:55;10.80;99.90
17565;DHT22;62994;52.126;5.596;2023-03-14T03:37:22;10.80;99.90
17565;DHT22;62994;52.126;5.596;2023-03-14T03:39:53;10.90;99.90
17565;DHT22;62994;52.126;5.596;2023-03-14T03:42:20;10.90;99.90
17565;DHT22;62994;52.126;5.596;2023-03-14T03:44:47;10.90;99.90
17565;DHT22;62994;52.126;5.596;2023-03-14T03:47:15;10.90;99.90
17565;DHT22;62994;52.126;5.596;2023-03-14T03:49:44;10.90;99.90
17565;DHT22;62994;52.126;5.596;2023-03-14T03:52:11;10.90;99.90
17565;DHT22;62994;52.126;5.596;2023-03-14T03:54:38;11.00;99.90
17565;DHT22;62994;52.126;5.596;2023-03-14T03:57:05;11.00;99.90
17565;DHT22;62994;52.126;5.596;2023-03-14T03:59:33;11.00;99.90
17565;DHT22;62994;52.126;5.596;2023-03-14T04:02:00;10.90;99.90
17565;DHT22;62994;52.126;5.596;2023-03-14T04:04:27;11.00;99.90
17565;DHT22;62994;52.126;5.596;2023-03-14T04:06:56;11.00;99.90
17565;DHT22;62994;52.126;5.596;2023-03-14T04:09:23;10.90;99.90
17565;DHT22;62994;52.126;5.596;2023-03-14T04:11:50;11.00;99.90
17565;DHT22;62994;52.126;5.596;2023-03-14T04:14:18;11.00;99.90
17565;DHT22;62994;52.126;5.596;2023-03-14T04:16:45;11.00;99.90
17565;DHT22;62994;52.126;5.596;2023-03-14T04:19:12;11.00;99.90
17565;DHT22;62994;52.126;5.596;2023-03-14T04:21:39;11.00;99.90
17565;DHT22;62994;52.126;5.596;2023-03-14T04:24:11;11.00;99.90
17565;DHT22;62994;52.126;5.596;2023-03-14T04:26:39;11.00;99.90
17565;DHT22;62994;52.126;5.596;2023-03-14T04:29:06;11.00;99.90
17565;DHT22;62994;52.126;5.596;2023-03-14T04:31:34;11.00;99.90
17565;DHT22;62994;52.126;5.596;2023-03-14T04:34:01;11.00;99.90
17565;DHT22;62994;52.126;5.596;2023-03-14T04:36:28;11.00;99.90
17565;DHT22;62994;52.126;5.596;2023-03-14T04:38:56;11.00;99.90
17565;DHT22;62994;52.126;5.596;2023-03-14T04:41:25;11.00;99.90
17565;DHT22;62994;52.126;5.596;2023-03-14T04:43:52;11.00;99.90
17565;DHT22;62994;52.126;5.596;2023-03-14T04:46:19;11.00;99.90
17565;DHT22;62994;52.126;5.596;2023-03-14T04:48:46;11.00;99.90
17565;DHT22;62994;52.126;5.596;2023-03-14T04:51:14;11.00;99.90
17565;DHT22;62994;52.126;5.596;2023-03-14T04:53:41;11.00;99.90
17565;DHT22;62994;52.126;5.596;2023-03-14T04:56:09;11.00;99.90
17565;DHT22;62994;52.126;5.596;2023-03-14T04:58:39;11.00;99.90
17565;DHT22;62994;52.126;5.596;2023-03-14T05:01:07;11.00;99.90
17565;DHT22;62994;52.126;5.596;2023-03-14T05:03:34;11.00;99.90
17565;DHT22;62994;52.126;5.596;2023-03-14T05:06:04;11.00;99.90
17565;DHT22;62994;52.126;5.596;2023-03-14T05:08:32;11.00;99.90
17565;DHT22;62994;52.126;5.596;2023-03-14T05:10:59;11.00;99.90
17565;DHT22;62994;52.126;5.596;2023-03-14T05:13:26;11.00;99.90
17565;DHT22;62994;52.126;5.596;2023-03-14T05:16:03;11.00;99.90
17565;DHT22;62994;52.126;5.596;2023-03-14T05:18:30;11.00;99.90
17565;DHT22;62994;52.126;5.596;2023-03-14T05:20:57;11.00;99.90
17565;DHT22;62994;52.126;5.596;2023-03-14T05:23:25;11.00;99.90
17565;DHT22;62994;52.126;5.596;2023-03-14T05:25:52;10.90;99.90
17565;DHT22;62994;52.126;5.596;2023-03-14T05:28:20;11.00;99.90
17565;DHT22;62994;52.126;5.596;2023-03-14T05:30:47;10.90;99.90
17565;DHT22;62994;52.126;5.596;2023-03-14T05:33:16;10.90;99.90
17565;DHT22;62994;52.126;5.596;2023-03-14T05:35:43;10.90;99.90
17565;DHT22;62994;52.126;5.596;2023-03-14T05:38:10;10.90;99.90
17565;DHT22;62994;52.126;5.596;2023-03-14T05:40:38;10.90;99.90
17565;DHT22;62994;52.126;5.596;2023-03-14T05:43:05;10.80;99.90
17565;DHT22;62994;52.126;5.596;2023-03-14T05:45:34;10.80;99.90
17565;DHT22;62994;52.126;5.596;2023-03-14T05:48:01;10.80;99.90
17565;DHT22;62994;52.126;5.596;2023-03-14T05:50:30;10.80;99.90
17565;DHT22;62994;52.126;5.596;2023-03-14T05:52:58;10.80;99.90
17565;DHT22;62994;52.126;5.596;2023-03-14T05:55:25;10.70;99.90
17565;DHT22;62994;52.126;5.596;2023-03-14T05:57:53;10.70;99.90
17565;DHT22;62994;52.126;5.596;2023-03-14T06:00:22;10.70;99.90
17565;DHT22;62994;52.126;5.596;2023-03-14T06:02:49;10.60;99.90
17565;DHT22;62994;52.126;5.596;2023-03-14T06:05:16;10.60;99.90
17565;DHT22;62994;52.126;5.596;2023-03-14T06:07:45;10.60;99.90
17565;DHT22;62994;52.126;5.596;2023-03-14T06:10:12;10.70;99.90
17565;DHT22;62994;52.126;5.596;2023-03-14T06:12:40;10.60;99.90
17565;DHT22;62994;52.126;5.596;2023-03-14T06:15:08;10.60;99.90
17565;DHT22;62994;52.126;5.596;2023-03-14T06:17:35;10.60;99.90
17565;DHT22;62994;52.126;5.596;2023-03-14T06:20:03;10.60;99.90
17565;DHT22;62994;52.126;5.596;2023-03-14T06:22:30;10.60;99.90
17565;DHT22;62994;52.126;5.596;2023-03-14T06:24:59;10.70;99.90
17565;DHT22;62994;52.126;5.596;2023-03-14T06:27:27;10.80;99.90
17565;DHT22;62994;52.126;5.596;2023-03-14T06:29:54;10.80;99.90
17565;DHT22;62994;52.126;5.596;2023-03-14T06:32:21;10.80;99.90
17565;DHT22;62994;52.126;5.596;2023-03-14T06:34:49;10.70;99.90
17565;DHT22;62994;52.126;5.596;2023-03-14T06:37:16;10.70;99.90
17565;DHT22;62994;52.126;5.596;2023-03-14T06:39:43;10.70;99.90
17565;DHT22;62994;52.126;5.596;2023-03-14T06:42:12;10.70;99.90
17565;DHT22;62994;52.126;5.596;2023-03-14T06:44:39;10.70;99.90
17565;DHT22;62994;52.126;5.596;2023-03-14T06:47:07;10.70;99.90
17565;DHT22;62994;52.126;5.596;2023-03-14T06:49:34;10.70;99.90
17565;DHT22;62994;52.126;5.596;2023-03-14T06:52:01;10.70;99.90
17565;DHT22;62994;52.126;5.596;2023-03-14T06:54:29;10.70;99.90
17565;DHT22;62994;52.126;5.596;2023-03-14T06:56:56;10.70;99.90
17565;DHT22;62994;52.126;5.596;2023-03-14T06:59:25;10.70;99.90
17565;DHT22;62994;52.126;5.596;2023-03-14T07:01:52;10.60;99.90
17565;DHT22;62994;52.126;5.596;2023-03-14T07:04:22;10.60;99.90
17565;DHT22;62994;52.126;5.596;2023-03-14T07:06:49;10.70;99.90
17565;DHT22;62994;52.126;5.596;2023-03-14T07:09:16;10.70;99.90
17565;DHT22;62994;52.126;5.596;2023-03-14T07:11:44;10.60;99.90
17565;DHT22;62994;52.126;5.596;2023-03-14T07:14:11;10.50;99.90
17565;DHT22;62994;52.126;5.596;2023-03-14T07:16:40;10.50;99.90
17565;DHT22;62994;52.126;5.596;2023-03-14T07:19:07;10.40;99.90
17565;DHT22;62994;52.126;5.596;2023-03-14T07:21:34;10.20;99.90
17565;DHT22;62994;52.126;5.596;2023-03-14T07:24:02;10.20;99.90
17565;DHT22;62994;52.126;5.596;2023-03-14T07:26:29;10.20;99.90
17565;DHT22;62994;52.126;5.596;2023-03-14T07:28:56;10.10;99.90
17565;DHT22;62994;52.126;5.596;2023-03-14T07:31:24;10.10;99.90
17565;DHT22;62994;52.126;5.596;2023-03-14T07:33:53;10.10;99.90
17565;DHT22;62994;52.126;5.596;2023-03-14T07:36:20;10.10;99.90
17565;DHT22;62994;52.126;5.596;2023-03-14T07:38:47;10.00;99.90
17565;DHT22;62994;52.126;5.596;2023-03-14T07:41:14;9.90;99.90
17565;DHT22;62994;52.126;5.596;2023-03-14T07:43:41;9.90;99.90
17565;DHT22;62994;52.126;5.596;2023-03-14T07:46:08;9.80;99.90
17565;DHT22;62994;52.126;5.596;2023-03-14T07:48:35;9.70;99.90
17565;DHT22;62994;52.126;5.596;2023-03-14T07:51:04;9.70;99.90
17565;DHT22;62994;52.126;5.596;2023-03-14T07:53:31;9.70;99.90
17565;DHT22;62994;52.126;5.596;2023-03-14T07:55:58;9.80;99.90
17565;DHT22;62994;52.126;5.596;2023-03-14T07:58:26;9.80;99.90
17565;DHT22;62994;52.126;5.596;2023-03-14T08:00:53;9.90;99.90
17565;DHT22;62994;52.126;5.596;2023-03-14T08:03:20;9.90;99.90
17565;DHT22;62994;52.126;5.596;2023-03-14T08:05:48;9.90;99.90
17565;DHT22;62994;52.126;5.596;2023-03-14T08:08:17;9.80;99.90
17565;DHT22;62994;52.126;5.596;2023-03-14T08:10:45;9.80;99.90
17565;DHT22;62994;52.126;5.596;2023-03-14T08:13:12;9.60;99.90
17565;DHT22;62994;52.126;5.596;2023-03-14T08:15:40;9.50;99.90
17565;DHT22;62994;52.126;5.596;2023-03-14T08:18:11;9.20;99.90
17565;DHT22;62994;52.126;5.596;2023-03-14T08:20:38;9.00;99.90
17565;DHT22;62994;52.126;5.596;2023-03-14T08:23:05;8.90;99.90
17565;DHT22;62994;52.126;5.596;2023-03-14T08:25:34;8.80;99.90
17565;DHT22;62994;52.126;5.596;2023-03-14T08:28:01;8.70;99.90
17565;DHT22;62994;52.126;5.596;2023-03-14T08:30:28;8.60;99.90
17565;DHT22;62994;52.126;5.596;2023-03-14T08:32:56;8.60;99.90
17565;DHT22;62994;52.126;5.596;2023-03-14T08:35:24;8.60;99.90
17565;DHT22;62994;52.126;5.596;2023-03-14T08:37:51;8.60;99.90
17565;DHT22;62994;52.126;5.596;2023-03-14T08:40:18;8.50;99.90
17565;DHT22;62994;52.126;5.596;2023-03-14T08:42:48;8.50;99.90
17565;DHT22;62994;52.126;5.596;2023-03-14T08:45:16;8.50;99.90
17565;DHT22;62994;52.126;5.596;2023-03-14T08:47:43;8.50;99.90
17565;DHT22;62994;52.126;5.596;2023-03-14T08:50:12;8.50;99.90
17565;DHT22;62994;52.126;5.596;2023-03-14T08:52:39;8.30;99.90
17565;DHT22;62994;52.126;5.596;2023-03-14T08:55:08;8.40;99.90
17565;DHT22;62994;52.126;5.596;2023-03-14T08:57:35;8.40;99.90
17565;DHT22;62994;52.126;5.596;2023-03-14T09:00:05;8.40;99.90
17565;DHT22;62994;52.126;5.596;2023-03-14T09:02:38;8.40;99.90
17565;DHT22;62994;52.126;5.596;2023-03-14T09:05:06;8.40;99.90
17565;DHT22;62994;52.126;5.596;2023-03-14T09:07:33;8.40;99.90
17565;DHT22;62994;52.126;5.596;2023-03-14T09:10:00;8.50;99.90
17565;DHT22;62994;52.126;5.596;2023-03-14T09:12:27;8.40;99.90
17565;DHT22;62994;52.126;5.596;2023-03-14T09:14:54;8.50;99.90
17565;DHT22;62994;52.126;5.596;2023-03-14T09:17:23;8.40;99.90
17565;DHT22;62994;52.126;5.596;2023-03-14T09:19:50;8.40;99.90
17565;DHT22;62994;52.126;5.596;2023-03-14T09:22:17;8.40;99.90
17565;DHT22;62994;52.126;5.596;2023-03-14T09:24:44;8.30;99.90
17565;DHT22;62994;52.126;5.596;2023-03-14T09:27:11;8.30;99.90
17565;DHT22;62994;52.126;5.596;2023-03-14T09:29:38;8.40;99.90
17565;DHT22;62994;52.126;5.596;2023-03-14T09:32:05;8.30;99.90
17565;DHT22;62994;52.126;5.596;2023-03-14T09:34:34;8.40;99.90
17565;DHT22;62994;52.126;5.596;2023-03-14T09:37:01;8.40;99.90
17565;DHT22;62994;52.126;5.596;2023-03-14T09:39:28;8.40;99.90
17565;DHT22;62994;52.126;5.596;2023-03-14T09:41:56;8.40;99.90
17565;DHT22;62994;52.126;5.596;2023-03-14T09:44:27;8.30;99.90
17565;DHT22;62994;52.126;5.596;2023-03-14T09:46:58;8.30;99.90
17565;DHT22;62994;52.126;5.596;2023-03-14T09:49:31;8.40;99.90
17565;DHT22;62994;52.126;5.596;2023-03-14T09:52:02;8.40;99.90
17565;DHT22;62994;52.126;5.596;2023-03-14T09:54:34;8.30;99.90
17565;DHT22;62994;52.126;5.596;2023-03-14T09:57:03;8.30;99.90
17565;DHT22;62994;52.126;5.596;2023-03-14T09:59:30;8.30;99.90
17565;DHT22;62994;52.126;5.596;2023-03-14T10:02:00;8.40;99.90
17565;DHT22;62994;52.126;5.596;2023-03-14T10:04:28;8.40;99.90
17565;DHT22;62994;52.126;5.596;2023-03-14T10:06:59;8.40;99.90
17565;DHT22;62994;52.126;5.596;2023-03-14T10:09:27;8.40;99.90
17565;DHT22;62994;52.126;5.596;2023-03-14T10:11:56;8.40;99.90
17565;DHT22;62994;52.126;5.596;2023-03-14T10:14:30;8.40;99.90
17565;DHT22;62994;52.126;5.596;2023-03-14T10:17:05;8.50;99.90
17565;DHT22;62994;52.126;5.596;2023-03-14T10:19:32;8.60;99.90
17565;DHT22;62994;52.126;5.596;2023-03-14T10:22:03;8.60;99.90
17565;DHT22;62994;52.126;5.596;2023-03-14T10:24:32;8.70;99.90
17565;DHT22;62994;52.126;5.596;2023-03-14T10:27:02;8.60;99.90
17565;DHT22;62994;52.126;5.596;2023-03-14T10:29:30;8.60;99.90
17565;DHT22;62994;52.126;5.596;2023-03-14T10:31:59;8.50;99.90
17565;DHT22;62994;52.126;5.596;2023-03-14T10:34:31;8.30;99.90
17565;DHT22;62994;52.126;5.596;2023-03-14T10:37:07;8.10;99.90
17565;DHT22;62994;52.126;5.596;2023-03-14T10:39:41;8.10;99.90
17565;DHT22;62994;52.126;5.596;2023-03-14T10:42:16;8.00;99.90
17565;DHT22;62994;52.126;5.596;2023-03-14T10:44:46;8.00;99.90
17565;DHT22;62994;52.126;5.596;2023-03-14T10:47:19;8.00;99.90
17565;DHT22;62994;52.126;5.596;2023-03-14T10:49:47;8.10;99.90
17565;DHT22;62994;52.126;5.596;2023-03-14T10:52:20;8.20;99.90
17565;DHT22;62994;52.126;5.596;2023-03-14T10:54:54;8.30;99.90
17565;DHT22;62994;52.126;5.596;2023-03-14T10:57:23;8.30;99.90
17565;DHT22;62994;52.126;5.596;2023-03-14T10:59:52;8.20;99.90
17565;DHT22;62994;52.126;5.596;2023-03-14T11:02:43;8.20;99.90
17565;DHT22;62994;52.126;5.596;2023-03-14T11:05:23;8.20;99.90
17565;DHT22;62994;52.126;5.596;2023-03-14T11:07:58;8.20;99.90
17565;DHT22;62994;52.126;5.596;2023-03-14T11:10:32;8.20;99.90
17565;DHT22;62994;52.126;5.596;2023-03-14T11:13:07;8.20;99.90
17565;DHT22;62994;52.126;5.596;2023-03-14T11:15:41;8.30;99.90
17565;DHT22;62994;52.126;5.596;2023-03-14T11:21:11;8.20;99.90
17565;DHT22;62994;52.126;5.596;2023-03-14T11:23:44;8.20;99.90
17565;DHT22;62994;52.126;5.596;2023-03-14T11:26:24;8.20;99.90
17565;DHT22;62994;52.126;5.596;2023-03-14T11:28:56;8.20;99.90
17565;DHT22;62994;52.126;5.596;2023-03-14T11:31:26;8.20;99.90
17565;DHT22;62994;52.126;5.596;2023-03-14T11:33:58;8.20;99.90
17565;DHT22;62994;52.126;5.596;2023-03-14T11:36:31;8.30;99.90
17565;DHT22;62994;52.126;5.596;2023-03-14T11:38:59;8.40;99.90
17565;DHT22;62994;52.126;5.596;2023-03-14T11:41:32;8.50;99.90
17565;DHT22;62994;52.126;5.596;2023-03-14T11:44:03;8.60;99.90
17565;DHT22;62994;52.126;5.596;2023-03-14T11:46:34;8.80;99.90
17565;DHT22;62994;52.126;5.596;2023-03-14T11:49:06;8.90;99.90
17565;DHT22;62994;52.126;5.596;2023-03-14T11:51:39;8.90;99.90
17565;DHT22;62994;52.126;5.596;2023-03-14T11:54:14;8.90;99.90
17565;DHT22;62994;52.126;5.596;2023-03-14T11:56:47;9.00;99.90
17565;DHT22;62994;52.126;5.596;2023-03-14T11:59:17;9.00;99.90
17565;DHT22;62994;52.126;5.596;2023-03-14T12:01:53;9.10;99.90
17565;DHT22;62994;52.126;5.596;2023-03-14T12:04:37;9.20;99.90
17565;DHT22;62994;52.126;5.596;2023-03-14T12:07:14;9.20;99.90
17565;DHT22;62994;52.126;5.596;2023-03-14T12:09:45;9.20;99.90
17565;DHT22;62994;52.126;5.596;2023-03-14T12:12:17;9.20;99.90
17565;DHT22;62994;52.126;5.596;2023-03-14T12:14:52;9.30;99.90
17565;DHT22;62994;52.126;5.596;2023-03-14T12:17:20;9.40;99.90
17565;DHT22;62994;52.126;5.596;2023-03-14T12:20:00;9.40;99.90
17565;DHT22;62994;52.126;5.596;2023-03-14T12:22:30;9.40;99.90
17565;DHT22;62994;52.126;5.596;2023-03-14T12:25:02;9.40;99.90
17565;DHT22;62994;52.126;5.596;2023-03-14T12:30:29;9.70;99.90
17565;DHT22;62994;52.126;5.596;2023-03-14T12:38:57;9.90;99.90
17565;DHT22;62994;52.126;5.596;2023-03-14T12:41:29;10.00;99.90
17565;DHT22;62994;52.126;5.596;2023-03-14T12:50:14;10.00;99.90
17565;DHT22;62994;52.126;5.596;2023-03-14T12:53:04;10.10;99.90
17565;DHT22;62994;52.126;5.596;2023-03-14T12:55:36;10.00;99.90
17565;DHT22;62994;52.126;5.596;2023-03-14T12:58:16;10.00;99.90
17565;DHT22;62994;52.126;5.596;2023-03-14T13:00:54;10.10;99.90
17565;DHT22;62994;52.126;5.596;2023-03-14T13:03:23;10.10;99.90
17565;DHT22;62994;52.126;5.596;2023-03-14T13:05:56;10.10;99.90
17565;DHT22;62994;52.126;5.596;2023-03-14T13:08:39;10.10;99.90
17565;DHT22;62994;52.126;5.596;2023-03-14T13:11:10;10.20;99.90
17565;DHT22;62994;52.126;5.596;2023-03-14T13:13:42;10.20;99.90
17565;DHT22;62994;52.126;5.596;2023-03-14T13:16:16;10.30;99.90
17565;DHT22;62994;52.126;5.596;2023-03-14T13:18:44;10.30;99.90
17565;DHT22;62994;52.126;5.596;2023-03-14T13:21:16;10.30;99.90
17565;DHT22;62994;52.126;5.596;2023-03-14T13:23:59;10.30;99.90
17565;DHT22;62994;52.126;5.596;2023-03-14T13:26:34;10.40;99.90
17565;DHT22;62994;52.126;5.596;2023-03-14T13:29:09;10.60;99.90
17565;DHT22;62994;52.126;5.596;2023-03-14T13:31:36;10.70;99.90
17565;DHT22;62994;52.126;5.596;2023-03-14T13:34:09;10.70;99.90
17565;DHT22;62994;52.126;5.596;2023-03-14T13:36:38;10.70;99.90
17565;DHT22;62994;52.126;5.596;2023-03-14T13:39:10;10.60;99.90
17565;DHT22;62994;52.126;5.596;2023-03-14T13:41:38;10.50;99.90
17565;DHT22;62994;52.126;5.596;2023-03-14T13:44:15;10.50;99.90
17565;DHT22;62994;52.126;5.596;2023-03-14T13:46:43;10.60;99.90
17565;DHT22;62994;52.126;5.596;2023-03-14T13:49:13;10.70;99.90
17565;DHT22;62994;52.126;5.596;2023-03-14T13:51:44;10.80;99.90
17565;DHT22;62994;52.126;5.596;2023-03-14T13:54:15;10.80;99.90
17565;DHT22;62994;52.126;5.596;2023-03-14T13:56:42;10.70;99.90
17565;DHT22;62994;52.126;5.596;2023-03-14T13:59:21;10.60;99.90
17565;DHT22;62994;52.126;5.596;2023-03-14T14:01:49;10.70;99.90
17565;DHT22;62994;52.126;5.596;2023-03-14T14:04:19;10.70;99.90
17565;DHT22;62994;52.126;5.596;2023-03-14T14:06:52;10.50;99.90
17565;DHT22;62994;52.126;5.596;2023-03-14T14:09:22;10.20;99.90
17565;DHT22;62994;52.126;5.596;2023-03-14T14:11:53;10.00;99.90
17565;DHT22;62994;52.126;5.596;2023-03-14T14:14:27;10.00;99.90
17565;DHT22;62994;52.126;5.596;2023-03-14T14:16:56;10.00;99.90
17565;DHT22;62994;52.126;5.596;2023-03-14T14:19:26;10.10;99.90
17565;DHT22;62994;52.126;5.596;2023-03-14T14:21:55;10.30;99.90
17565;DHT22;62994;52.126;5.596;2023-03-14T14:24:25;10.40;99.90
17565;DHT22;62994;52.126;5.596;2023-03-14T14:26:59;10.50;99.90
17565;DHT22;62994;52.126;5.596;2023-03-14T14:29:28;10.40;99.90
17565;DHT22;62994;52.126;5.596;2023-03-14T14:32:12;10.30;99.90
17565;DHT22;62994;52.126;5.596;2023-03-14T14:34:40;10.30;99.90
17565;DHT22;62994;52.126;5.596;2023-03-14T14:37:19;10.20;99.90
17565;DHT22;62994;52.126;5.596;2023-03-14T14:39:47;10.10;99.90
17565;DHT22;62994;52.126;5.596;2023-03-14T14:42:16;9.90;99.90
17565;DHT22;62994;52.126;5.596;2023-03-14T14:44:44;9.80;99.90
17565;DHT22;62994;52.126;5.596;2023-03-14T14:47:13;9.80;99.90
17565;DHT22;62994;52.126;5.596;2023-03-14T14:49:41;9.80;99.90
17565;DHT22;62994;52.126;5.596;2023-03-14T14:52:13;9.80;99.90
17565;DHT22;62994;52.126;5.596;2023-03-14T14:54:45;9.90;99.90
17565;DHT22;62994;52.126;5.596;2023-03-14T14:57:19;9.80;99.90
17565;DHT22;62994;52.126;5.596;2023-03-14T14:59:48;9.70;99.90
17565;DHT22;62994;52.126;5.596;2023-03-14T15:02:32;9.70;99.90
17565;DHT22;62994;52.126;5.596;2023-03-14T15:05:03;9.70;99.90
17565;DHT22;62994;52.126;5.596;2023-03-14T15:07:31;9.70;99.90
17565;DHT22;62994;52.126;5.596;2023-03-14T15:10:00;9.70;99.90
17565;DHT22;62994;52.126;5.596;2023-03-14T15:12:27;9.70;99.90
17565;DHT22;62994;52.126;5.596;2023-03-14T15:14:53;9.70;99.90
17565;DHT22;62994;52.126;5.596;2023-03-14T15:17:22;9.80;99.90
17565;DHT22;62994;52.126;5.596;2023-03-14T15:19:50;9.60;99.90
17565;DHT22;62994;52.126;5.596;2023-03-14T15:22:17;9.60;99.90
17565;DHT22;62994;52.126;5.596;2023-03-14T15:24:44;9.40;99.90
17565;DHT22;62994;52.126;5.596;2023-03-14T15:27:15;9.30;99.90
17565;DHT22;62994;52.126;5.596;2023-03-14T15:29:44;9.30;99.90
17565;DHT22;62994;52.126;5.596;2023-03-14T15:32:12;9.30;99.90
17565;DHT22;62994;52.126;5.596;2023-03-14T15:34:39;9.30;99.90
17565;DHT22;62994;52.126;5.596;2023-03-14T15:37:10;9.40;99.90
17565;DHT22;62994;52.126;5.596;2023-03-14T15:39:38;9.30;99.90
17565;DHT22;62994;52.126;5.596;2023-03-14T15:42:05;9.20;99.90
17565;DHT22;62994;52.126;5.596;2023-03-14T15:44:34;9.30;99.90
17565;DHT22;62994;52.126;5.596;2023-03-14T15:47:01;9.30;99.90
17565;DHT22;62994;52.126;5.596;2023-03-14T15:49:28;9.20;99.90
17565;DHT22;62994;52.126;5.596;2023-03-14T15:51:55;9.20;99.90
17565;DHT22;62994;52.126;5.596;2023-03-14T15:54:22;9.10;99.90
17565;DHT22;62994;52.126;5.596;2023-03-14T15:56:49;9.10;99.90
17565;DHT22;62994;52.126;5.596;2023-03-14T15:59:17;9.10;99.90
17565;DHT22;62994;52.126;5.596;2023-03-14T16:01:46;9.20;99.90
17565;DHT22;62994;52.126;5.596;2023-03-14T16:04:13;9.10;99.90
17565;DHT22;62994;52.126;5.596;2023-03-14T16:06:40;9.00;99.90
17565;DHT22;62994;52.126;5.596;2023-03-14T16:09:09;9.00;99.90